createdAt,value
2022-09-27T00:00:52.653Z,67.30
2022-09-27T00:03:28.844Z,66.40
2022-09-27T00:06:40.862Z,66.20
2022-09-27T00:09:16.222Z,66.50
2022-09-27T00:11:51.248Z,66.60
2022-09-27T00:14:26.161Z,66.50
2022-09-27T00:17:01.100Z,66.50
2022-09-27T00:19:36.061Z,65.60
2022-09-27T00:22:10.958Z,64.70
2022-09-27T00:24:45.862Z,65.20
2022-09-27T00:27:21.035Z,65.70
2022-09-27T00:29:56.066Z,65.60
2022-09-27T00:32:33.410Z,64.80
2022-09-27T00:35:08.698Z,64.70
2022-09-27T00:37:43.613Z,65.20
2022-09-27T00:40:24.073Z,65.40
2022-09-27T00:43:00.168Z,65.10
2022-09-27T00:45:35.078Z,65.00
2022-09-27T00:48:16.157Z,65.20
2022-09-27T00:50:59.053Z,64.40
2022-09-27T00:53:46.643Z,64.80
2022-09-27T00:56:27.753Z,64.30
2022-09-27T00:59:10.929Z,65.30
2022-09-27T01:01:46.408Z,65.60
2022-09-27T01:04:25.039Z,64.80
2022-09-27T01:07:01.147Z,65.00
2022-09-27T01:09:36.721Z,65.20
2022-09-27T01:12:27.609Z,65.70
2022-09-27T01:15:24.382Z,65.40
2022-09-27T01:18:31.065Z,65.70
2022-09-27T01:21:31.097Z,66.10
2022-09-27T01:24:21.099Z,64.90
2022-09-27T01:27:53.152Z,66.10
2022-09-27T01:30:52.599Z,67.40
2022-09-27T01:34:11.429Z,68.00
2022-09-27T01:37:31.514Z,68.10
2022-09-27T01:40:37.465Z,69.50
2022-09-27T01:43:39.323Z,70.00
2022-09-27T01:46:55.625Z,71.10
2022-09-27T01:50:03.397Z,71.70
2022-09-27T01:52:55.132Z,72.00
2022-09-27T01:55:37.789Z,72.10
2022-09-27T01:59:32.943Z,72.40
2022-09-27T02:02:40.534Z,73.10
2022-09-27T02:05:46.670Z,72.70
2022-09-27T02:08:50.836Z,72.60
2022-09-27T02:11:40.376Z,72.30
2022-09-27T02:14:54.557Z,72.30
2022-09-27T02:17:51.632Z,72.70
2022-09-27T02:20:38.509Z,73.50
2022-09-27T02:23:25.933Z,74.40
2022-09-27T02:26:39.473Z,75.70
2022-09-27T02:29:27.236Z,78.70
2022-09-27T02:32:05.600Z,79.20
2022-09-27T02:34:46.149Z,81.20
2022-09-27T02:37:21.325Z,82.20
2022-09-27T02:39:58.008Z,84.10
2022-09-27T02:42:33.588Z,84.70
2022-09-27T02:45:10.459Z,85.30
2022-09-27T02:48:43.317Z,86.00
2022-09-27T02:51:30.767Z,86.80
2022-09-27T02:54:33.759Z,87.30
2022-09-27T02:58:24.506Z,87.70
2022-09-27T03:01:42.654Z,88.00
2022-09-27T03:05:07.791Z,88.40
2022-09-27T03:07:42.873Z,88.50
2022-09-27T03:10:29.142Z,88.70
2022-09-27T03:13:05.067Z,88.80
2022-09-27T03:15:40.328Z,88.80
2022-09-27T03:18:15.284Z,88.90
2022-09-27T03:20:52.885Z,89.10
2022-09-27T03:23:30.029Z,89.20
2022-09-27T03:26:06.340Z,88.50
2022-09-27T03:28:42.998Z,88.40
2022-09-27T03:31:17.976Z,88.30
2022-09-27T03:34:18.892Z,88.00
2022-09-27T03:36:53.843Z,88.00
2022-09-27T03:39:28.770Z,87.70
2022-09-27T03:42:03.882Z,87.00
2022-09-27T03:44:38.880Z,86.80
2022-09-27T03:47:13.872Z,85.90
2022-09-27T03:49:50.216Z,85.70
2022-09-27T03:52:25.161Z,85.10
2022-09-27T03:55:02.341Z,84.60
2022-09-27T03:57:39.111Z,84.10
2022-09-27T04:00:15.986Z,83.50
2022-09-27T04:02:50.927Z,83.00
2022-09-27T04:05:29.379Z,82.50
2022-09-27T04:08:13.100Z,83.10
2022-09-27T04:10:49.513Z,83.80
2022-09-27T04:13:24.846Z,83.20
2022-09-27T04:16:03.165Z,82.10
2022-09-27T04:19:08.428Z,81.40
2022-09-27T04:21:53.442Z,81.10
2022-09-27T04:24:28.548Z,79.90
2022-09-27T04:27:19.974Z,79.60
2022-09-27T04:29:59.257Z,79.30
2022-09-27T04:32:52.735Z,79.80
2022-09-27T04:36:15.609Z,80.50
2022-09-27T04:39:09.955Z,80.30
2022-09-27T04:41:47.885Z,79.70
2022-09-27T04:44:23.031Z,79.30
2022-09-27T04:46:58.833Z,79.10
2022-09-27T04:49:33.739Z,78.70
2022-09-27T04:52:09.793Z,78.10
2022-09-27T04:54:44.818Z,77.60
2022-09-27T04:57:20.342Z,77.20
2022-09-27T04:59:55.362Z,77.50
2022-09-27T05:02:31.395Z,76.70
2022-09-27T05:05:29.351Z,75.30
2022-09-27T05:08:04.337Z,73.90
2022-09-27T05:10:59.347Z,74.00
2022-09-27T05:13:34.338Z,73.40
2022-09-27T05:16:09.368Z,72.90
2022-09-27T05:19:23.190Z,73.30
2022-09-27T05:22:24.206Z,73.30
2022-09-27T05:25:00.022Z,71.60
2022-09-27T05:27:35.142Z,72.00
2022-09-27T05:30:11.079Z,72.80
2022-09-27T05:33:02.546Z,73.40
2022-09-27T05:35:57.653Z,74.00
2022-09-27T05:38:36.956Z,76.10
2022-09-27T05:41:13.280Z,77.10
2022-09-27T05:43:49.306Z,77.90
2022-09-27T05:46:24.836Z,78.00
2022-09-27T05:49:00.948Z,78.30
2022-09-27T05:51:36.444Z,79.00
2022-09-27T05:54:11.560Z,77.50
2022-09-27T05:56:47.056Z,77.00
2022-09-27T05:59:33.316Z,75.10
2022-09-27T06:02:26.790Z,74.20
2022-09-27T06:05:20.551Z,71.30
2022-09-27T06:08:27.303Z,70.70
2022-09-27T06:11:08.620Z,70.80
2022-09-27T06:13:43.701Z,71.00
2022-09-27T06:16:20.722Z,71.00
2022-09-27T06:18:55.624Z,71.90
2022-09-27T06:21:32.756Z,72.10
2022-09-27T06:24:08.302Z,72.20
2022-09-27T06:26:44.990Z,73.20
2022-09-27T06:29:35.259Z,72.40
2022-09-27T06:32:12.781Z,71.90
2022-09-27T06:34:57.034Z,71.60
2022-09-27T06:37:34.709Z,70.00
2022-09-27T06:40:10.323Z,67.30
2022-09-27T06:43:10.494Z,66.40
2022-09-27T06:46:05.822Z,65.50
2022-09-27T06:49:01.635Z,67.30
2022-09-27T06:51:38.255Z,69.70
2022-09-27T06:54:13.331Z,73.10
2022-09-27T06:56:48.597Z,72.50
2022-09-27T06:59:42.669Z,75.70
2022-09-27T07:02:54.425Z,76.80
2022-09-27T07:06:06.304Z,79.90
2022-09-27T07:08:55.047Z,82.20
2022-09-27T07:11:31.262Z,82.80
2022-09-27T07:14:08.116Z,83.50
2022-09-27T07:16:43.690Z,84.30
2022-09-27T07:19:18.777Z,84.70
2022-09-27T07:21:55.499Z,86.30
2022-09-27T07:24:31.628Z,86.70
2022-09-27T07:27:07.333Z,87.70
2022-09-27T07:29:42.488Z,88.60
2022-09-27T07:32:17.381Z,89.00
2022-09-27T07:34:52.418Z,88.70
2022-09-27T07:37:29.102Z,88.50
2022-09-27T07:40:08.741Z,88.80
2022-09-27T07:42:44.897Z,89.40
2022-09-27T07:45:19.910Z,88.80
2022-09-27T07:48:16.573Z,88.60
2022-09-27T07:51:17.808Z,88.70
2022-09-27T07:53:56.634Z,89.10
2022-09-27T07:56:47.616Z,89.20
2022-09-27T07:59:25.053Z,88.90
2022-09-27T08:02:00.240Z,88.50
2022-09-27T08:04:35.177Z,86.90
2022-09-27T08:07:14.226Z,86.60
2022-09-27T08:09:53.701Z,86.20
2022-09-27T08:12:28.813Z,87.20
2022-09-27T08:15:05.415Z,86.60
2022-09-27T08:17:41.079Z,85.00
2022-09-27T08:20:21.371Z,85.20
2022-09-27T08:23:27.235Z,84.70
2022-09-27T08:26:20.496Z,83.00
2022-09-27T08:29:00.818Z,81.50
2022-09-27T08:31:39.206Z,81.40
2022-09-27T08:34:15.507Z,72.60
2022-09-27T08:36:50.676Z,73.60
2022-09-27T08:39:25.875Z,74.80
2022-09-27T08:42:25.259Z,77.00
2022-09-27T08:45:17.756Z,76.50
2022-09-27T08:48:00.694Z,71.90
2022-09-27T08:50:41.870Z,65.70
2022-09-27T08:53:25.915Z,64.30
2022-09-27T08:56:03.777Z,63.30
2022-09-27T08:58:56.562Z,64.10
2022-09-27T09:01:37.380Z,63.80
2022-09-27T09:04:40.048Z,60.50
2022-09-27T09:07:41.518Z,53.40
2022-09-27T09:11:11.617Z,57.10
2022-09-27T09:14:17.246Z,54.10
2022-09-27T09:17:41.972Z,57.70
2022-09-27T09:21:04.964Z,58.30
2022-09-27T09:24:04.696Z,68.60
2022-09-27T09:27:23.125Z,72.30
2022-09-27T09:31:02.591Z,76.30
2022-09-27T09:33:55.340Z,79.70
2022-09-27T09:37:17.427Z,81.50
2022-09-27T09:39:58.646Z,83.30
2022-09-27T09:42:39.250Z,85.30
2022-09-27T09:45:27.688Z,85.10
2022-09-27T09:48:21.293Z,84.60
2022-09-27T09:51:01.338Z,83.30
2022-09-27T09:54:27.470Z,80.90
2022-09-27T09:57:15.280Z,79.60
2022-09-27T09:59:59.687Z,76.40
2022-09-27T10:02:39.523Z,78.10
2022-09-27T10:05:24.319Z,75.00
2022-09-27T10:08:22.368Z,65.60
2022-09-27T10:11:07.610Z,66.10
2022-09-27T10:13:56.515Z,57.70
2022-09-27T10:16:32.655Z,62.70
2022-09-27T10:19:08.637Z,61.80
2022-09-27T10:21:46.710Z,56.00
2022-09-27T10:24:23.119Z,55.20
2022-09-27T10:27:01.756Z,47.30
2022-09-27T10:29:39.835Z,52.50
2022-09-27T10:32:37.221Z,54.50
2022-09-27T10:35:43.566Z,50.80
2022-09-27T10:38:35.906Z,52.50
2022-09-27T10:41:31.631Z,51.40
2022-09-27T10:44:15.696Z,55.10
2022-09-27T10:47:07.516Z,52.60
2022-09-27T10:50:07.981Z,51.20
2022-09-27T10:53:15.661Z,56.00
2022-09-27T10:55:53.398Z,59.30
2022-09-27T10:58:38.123Z,59.60
2022-09-27T11:01:17.404Z,58.60
2022-09-27T11:04:37.912Z,54.20
2022-09-27T11:07:18.445Z,56.50
2022-09-27T11:10:03.184Z,58.50
2022-09-27T11:12:42.105Z,58.90
2022-09-27T11:15:20.988Z,57.90
2022-09-27T11:18:16.384Z,54.20
2022-09-27T11:21:24.563Z,49.70
2022-09-27T11:23:59.396Z,51.10
2022-09-27T11:26:50.618Z,51.90
2022-09-27T11:29:52.681Z,54.90
2022-09-27T11:32:58.738Z,51.60
2022-09-27T11:35:47.259Z,51.70
2022-09-27T11:38:52.644Z,49.20
2022-09-27T11:42:14.927Z,46.90
2022-09-27T11:45:34.187Z,44.60
2022-09-27T11:48:09.240Z,46.00
2022-09-27T11:51:13.724Z,42.40
2022-09-27T11:54:24.179Z,39.80
2022-09-27T11:57:18.847Z,44.30
2022-09-27T12:00:03.511Z,45.10
2022-09-27T12:03:39.285Z,46.20
2022-09-27T12:06:34.058Z,53.80
2022-09-27T12:09:15.563Z,58.00
2022-09-27T12:12:02.797Z,66.30
2022-09-27T12:15:06.621Z,73.30
2022-09-27T12:17:46.967Z,77.00
2022-09-27T12:20:27.235Z,80.50
2022-09-27T12:23:07.271Z,83.70
2022-09-27T12:26:13.224Z,86.10
2022-09-27T12:28:51.578Z,87.20
2022-09-27T12:31:47.845Z,88.20
2022-09-27T12:34:30.424Z,88.90
2022-09-27T12:37:38.283Z,89.90
2022-09-27T12:40:53.200Z,90.10
2022-09-27T12:43:36.750Z,90.10
2022-09-27T12:46:55.670Z,90.30
2022-09-27T12:49:46.575Z,90.20
2022-09-27T12:52:25.676Z,90.30
2022-09-27T12:55:35.409Z,89.50
2022-09-27T12:58:34.462Z,89.50
2022-09-27T13:02:04.392Z,90.30
2022-09-27T13:05:20.026Z,90.50
2022-09-27T13:08:35.689Z,90.30
2022-09-27T13:11:40.475Z,88.20
2022-09-27T13:14:28.698Z,86.30
2022-09-27T13:17:04.031Z,85.50
2022-09-27T13:19:44.345Z,84.40
2022-09-27T13:22:27.477Z,84.10
2022-09-27T13:25:51.651Z,83.90
2022-09-27T13:28:59.100Z,84.50
2022-09-27T13:31:58.778Z,82.50
2022-09-27T13:34:50.529Z,82.80
2022-09-27T13:37:59.053Z,83.70
2022-09-27T13:40:50.771Z,84.90
2022-09-27T13:43:50.545Z,86.30
2022-09-27T13:46:37.002Z,86.60
2022-09-27T13:49:24.666Z,87.20
2022-09-27T13:52:35.755Z,87.90
2022-09-27T13:55:48.114Z,88.90
2022-09-27T13:59:00.111Z,88.70
2022-09-27T14:02:19.768Z,88.90
2022-09-27T14:04:59.896Z,88.70
2022-09-27T14:07:41.556Z,89.70
2022-09-27T14:10:23.223Z,89.60
2022-09-27T14:13:01.419Z,89.10
2022-09-27T14:15:37.783Z,89.50
2022-09-27T14:18:16.602Z,89.70
2022-09-27T14:20:53.113Z,90.20
2022-09-27T14:23:46.412Z,90.60
2022-09-27T14:26:27.077Z,90.40
2022-09-27T14:29:02.666Z,90.60
2022-09-27T14:31:42.731Z,90.70
2022-09-27T14:34:29.629Z,90.90
2022-09-27T14:37:24.065Z,91.00
2022-09-27T14:40:08.847Z,91.00
2022-09-27T14:42:44.000Z,91.40
2022-09-27T14:45:23.159Z,91.20
2022-09-27T14:48:00.552Z,91.40
2022-09-27T14:50:36.018Z,91.60
2022-09-27T14:53:24.390Z,91.80
2022-09-27T14:56:01.785Z,92.20
2022-09-27T14:58:47.079Z,92.40
2022-09-27T15:01:23.648Z,92.20
2022-09-27T15:04:11.961Z,92.00
2022-09-27T15:06:49.571Z,91.80
2022-09-27T15:09:26.023Z,91.60
2022-09-27T15:12:05.482Z,91.20
2022-09-27T15:14:42.618Z,90.70
2022-09-27T15:17:23.134Z,90.40
2022-09-27T15:20:01.508Z,89.60
2022-09-27T15:22:45.791Z,87.40
2022-09-27T15:25:37.066Z,86.70
2022-09-27T15:28:11.883Z,85.40
2022-09-27T15:30:55.835Z,84.00
2022-09-27T15:33:32.507Z,82.50
2022-09-27T15:36:10.308Z,81.50
2022-09-27T15:38:48.395Z,79.50
2022-09-27T15:41:23.379Z,80.10
2022-09-27T15:43:58.471Z,81.50
2022-09-27T15:46:42.679Z,82.10
2022-09-27T15:49:30.637Z,76.80
2022-09-27T15:52:07.820Z,79.70
2022-09-27T15:54:42.761Z,80.20
2022-09-27T15:57:18.425Z,74.20
2022-09-27T15:59:53.374Z,72.40
2022-09-27T16:02:28.480Z,62.30
2022-09-27T16:05:03.610Z,69.80
2022-09-27T16:07:38.566Z,71.20
2022-09-27T16:10:18.366Z,67.40
2022-09-27T16:12:53.360Z,72.90
2022-09-27T16:15:28.330Z,69.10
2022-09-27T16:18:03.811Z,72.90
2022-09-27T16:20:39.084Z,74.80
2022-09-27T16:23:14.018Z,73.40
2022-09-27T16:25:48.956Z,74.80
2022-09-27T16:28:23.835Z,73.90
2022-09-27T16:31:04.819Z,69.00
2022-09-27T16:33:39.855Z,72.90
2022-09-27T16:36:19.182Z,66.90
2022-09-27T16:38:54.739Z,71.70
2022-09-27T16:41:29.724Z,73.50
2022-09-27T16:44:11.053Z,71.90
2022-09-27T16:46:48.960Z,70.60
2022-09-27T16:49:42.285Z,74.80
2022-09-27T16:52:17.240Z,73.80
2022-09-27T16:54:52.212Z,76.90
2022-09-27T16:57:30.391Z,78.60
2022-09-27T17:00:06.916Z,79.80
2022-09-27T17:02:47.055Z,81.30
2022-09-27T17:05:23.175Z,74.20
2022-09-27T17:07:58.147Z,73.80
2022-09-27T17:10:33.095Z,76.30
2022-09-27T17:13:08.186Z,78.00
2022-09-27T17:15:43.542Z,79.50
2022-09-27T17:18:18.503Z,80.30
2022-09-27T17:20:53.389Z,78.80
2022-09-27T17:23:28.420Z,73.00
2022-09-27T17:26:26.450Z,72.10
2022-09-27T17:29:02.232Z,77.40
2022-09-27T17:31:40.231Z,77.80
2022-09-27T17:34:17.034Z,78.40
2022-09-27T17:36:52.198Z,77.70
2022-09-27T17:39:27.166Z,79.00
2022-09-27T17:42:02.537Z,79.90
2022-09-27T17:44:37.570Z,80.50
2022-09-27T17:47:30.954Z,81.60
2022-09-27T17:50:24.356Z,82.20
2022-09-27T17:52:59.277Z,81.30
2022-09-27T17:55:36.004Z,81.50
2022-09-27T17:58:11.042Z,82.40
2022-09-27T18:00:46.693Z,83.80
2022-09-27T18:03:21.620Z,83.90
2022-09-27T18:05:57.754Z,80.20
2022-09-27T18:08:33.195Z,82.20
2022-09-27T18:11:15.312Z,77.90
2022-09-27T18:13:50.189Z,79.70
2022-09-27T18:16:29.636Z,77.90
2022-09-27T18:19:06.912Z,77.10
2022-09-27T18:21:42.618Z,76.20
2022-09-27T18:24:17.770Z,78.30
2022-09-27T18:26:54.345Z,76.90
2022-09-27T18:29:29.364Z,79.70
2022-09-27T18:32:04.263Z,78.50
2022-09-27T18:34:40.776Z,77.70
2022-09-27T18:37:15.699Z,78.40
2022-09-27T18:39:50.575Z,79.20
2022-09-27T18:42:25.549Z,78.50
2022-09-27T18:45:00.540Z,79.60
2022-09-27T18:47:35.525Z,77.90
2022-09-27T18:50:11.329Z,77.30
2022-09-27T18:52:46.272Z,79.10
2022-09-27T18:55:25.263Z,78.40
2022-09-27T18:58:00.416Z,78.70
2022-09-27T19:00:36.352Z,79.70
2022-09-27T19:03:16.098Z,80.20
2022-09-27T19:06:04.401Z,81.30
2022-09-27T19:08:39.813Z,80.30
2022-09-27T19:11:17.745Z,79.00
2022-09-27T19:13:56.036Z,80.00
2022-09-27T19:16:31.323Z,81.30
2022-09-27T19:19:06.339Z,81.60
2022-09-27T19:21:41.245Z,82.20
2022-09-27T19:24:16.613Z,82.50
2022-09-27T19:26:53.693Z,84.00
2022-09-27T19:29:30.579Z,84.00
2022-09-27T19:32:05.461Z,83.80
2022-09-27T19:35:06.821Z,83.50
2022-09-27T19:37:41.771Z,84.30
2022-09-27T19:40:17.786Z,85.10
2022-09-27T19:42:55.851Z,84.80
2022-09-27T19:45:30.818Z,85.20
2022-09-27T19:48:05.660Z,85.30
2022-09-27T19:50:40.525Z,84.50
2022-09-27T19:53:16.550Z,86.30
2022-09-27T19:56:03.817Z,86.40
2022-09-27T19:58:40.992Z,86.60
2022-09-27T20:01:20.302Z,87.10
2022-09-27T20:03:55.919Z,86.70
2022-09-27T20:06:32.712Z,86.40
2022-09-27T20:09:07.856Z,86.80
2022-09-27T20:11:42.798Z,86.70
2022-09-27T20:14:17.941Z,87.20
2022-09-27T20:16:53.847Z,87.50
2022-09-27T20:19:28.777Z,87.80
2022-09-27T20:22:03.657Z,88.30
2022-09-27T20:24:38.500Z,88.30
2022-09-27T20:27:13.669Z,88.00
2022-09-27T20:29:48.608Z,87.40
2022-09-27T20:32:27.897Z,87.00
2022-09-27T20:35:03.919Z,87.10
2022-09-27T20:37:38.892Z,87.20
2022-09-27T20:40:14.307Z,87.00
2022-09-27T20:42:49.289Z,87.00
2022-09-27T20:45:24.223Z,87.10
2022-09-27T20:47:59.095Z,87.30
2022-09-27T20:50:34.071Z,87.50
2022-09-27T20:53:09.003Z,87.70
2022-09-27T20:55:43.988Z,87.80
2022-09-27T20:58:18.858Z,87.50
2022-09-27T21:00:53.763Z,87.50
2022-09-27T21:03:28.733Z,87.60
2022-09-27T21:06:04.611Z,87.40
2022-09-27T21:08:40.994Z,87.30
2022-09-27T21:11:17.997Z,87.50
2022-09-27T21:13:54.440Z,88.00
2022-09-27T21:16:35.235Z,87.90
2022-09-27T21:19:10.573Z,88.20
2022-09-27T21:21:45.514Z,88.20
2022-09-27T21:24:20.415Z,88.40
2022-09-27T21:26:58.141Z,88.60
2022-09-27T21:29:33.046Z,88.60
2022-09-27T21:32:08.966Z,88.80
2022-09-27T21:34:43.930Z,89.00
2022-09-27T21:37:18.836Z,89.20
2022-09-27T21:39:53.811Z,89.20
2022-09-27T21:42:28.734Z,89.40
2022-09-27T21:45:04.082Z,89.50
2022-09-27T21:47:39.004Z,89.40
2022-09-27T21:50:13.968Z,89.50
2022-09-27T21:52:48.875Z,89.70
2022-09-27T21:55:23.754Z,89.70
2022-09-27T21:57:58.638Z,89.50
2022-09-27T22:00:33.582Z,89.50
2022-09-27T22:03:08.526Z,89.80
2022-09-27T22:05:45.177Z,89.40
2022-09-27T22:08:21.233Z,89.50
2022-09-27T22:10:56.360Z,89.30
2022-09-27T22:13:32.591Z,89.30
2022-09-27T22:16:12.425Z,88.40
2022-09-27T22:18:50.402Z,88.10
2022-09-27T22:21:33.200Z,88.10
2022-09-27T22:24:17.567Z,88.10
2022-09-27T22:26:53.866Z,88.00
2022-09-27T22:29:28.718Z,88.00
2022-09-27T22:32:03.666Z,88.10
2022-09-27T22:34:38.637Z,88.00
2022-09-27T22:37:13.531Z,88.00
2022-09-27T22:39:48.528Z,87.80
2022-09-27T22:42:23.576Z,87.40
2022-09-27T22:44:58.575Z,87.60
2022-09-27T22:47:33.530Z,87.60
2022-09-27T22:50:08.905Z,87.60
2022-09-27T22:52:43.839Z,87.60
2022-09-27T22:55:18.769Z,87.60
2022-09-27T22:57:53.685Z,87.70
2022-09-27T23:00:29.503Z,87.60
2022-09-27T23:03:04.497Z,87.60
2022-09-27T23:05:39.538Z,87.70
2022-09-27T23:08:15.169Z,87.80
2022-09-27T23:10:50.116Z,87.80
2022-09-27T23:13:25.008Z,87.70
2022-09-27T23:16:04.950Z,88.00
2022-09-27T23:18:40.212Z,88.00
2022-09-27T23:21:16.186Z,87.90
2022-09-27T23:23:52.914Z,87.90
2022-09-27T23:26:28.791Z,88.00
2022-09-27T23:29:04.079Z,88.00
2022-09-27T23:31:39.071Z,88.10
2022-09-27T23:34:15.277Z,88.00
2022-09-27T23:36:50.508Z,88.20
2022-09-27T23:39:25.498Z,88.30
2022-09-27T23:42:00.490Z,88.30
2022-09-27T23:44:35.411Z,88.40
2022-09-27T23:47:10.690Z,88.50
2022-09-27T23:49:45.587Z,88.50
2022-09-27T23:52:20.573Z,88.50
2022-09-27T23:54:55.674Z,88.50
2022-09-27T23:57:30.912Z,88.60
